Time;durP1;ratioP1;P1;durP2;ratioP2;P2;SDS_P1;SDS_P2;PMS_P1;PMS_P2;Temp;Humidity;BMP_temperature;BMP_pressure;BME280_temperature;BME280_humidity;BME280_pressure;Samples;Min_cycle;Max_cycle;Signal;HPM_P1;HPM_P2
2023/03/29 00:00:58;;;;;;;;;;;6.00;99.90;;;;;;5134964;27;19972;-57
2023/03/29 00:03:24;;;;;;;;;;;6.10;99.90;;;;;;5134841;27;20009;-57
2023/03/29 00:05:56;;;;;;;;;;;6.00;99.90;;;;;;5135411;27;19924;-58
2023/03/29 00:08:22;;;;;;;;;;;6.00;99.90;;;;;;5135140;27;19911;-57
2023/03/29 00:10:48;;;;;;;;;;;6.00;99.90;;;;;;5134716;27;19907;-57
2023/03/29 00:13:13;;;;;;;;;;;6.00;99.90;;;;;;5135195;27;19915;-57
2023/03/29 00:15:40;;;;;;;;;;;6.00;99.90;;;;;;5135055;27;19915;-56
2023/03/29 00:18:05;;;;;;;;;;;6.00;99.90;;;;;;5134453;27;19911;-58
2023/03/29 00:20:31;;;;;;;;;;;6.00;99.90;;;;;;5135104;27;19963;-57
2023/03/29 00:22:56;;;;;;;;;;;6.00;99.90;;;;;;5134879;27;19908;-57
2023/03/29 00:25:22;;;;;;;;;;;6.00;99.90;;;;;;5134595;27;20267;-57
2023/03/29 00:27:47;;;;;;;;;;;6.00;99.90;;;;;;5135027;27;19938;-57
2023/03/29 00:30:13;;;;;;;;;;;6.00;99.90;;;;;;5134626;27;20354;-57
2023/03/29 00:32:39;;;;;;;;;;;6.00;99.90;;;;;;5134366;27;19909;-58
2023/03/29 00:35:05;;;;;;;;;;;5.90;99.90;;;;;;5134671;27;20010;-58
2023/03/29 00:37:31;;;;;;;;;;;5.90;99.90;;;;;;5134019;27;19914;-57
2023/03/29 00:39:56;;;;;;;;;;;5.90;99.90;;;;;;5134706;27;19907;-57
2023/03/29 00:42:22;;;;;;;;;;;5.90;99.90;;;;;;5134650;27;19952;-58
2023/03/29 00:44:54;;;;;;;;;;;5.90;99.90;;;;;;5134020;27;19916;-56
2023/03/29 00:47:25;;;;;;;;;;;5.90;99.90;;;;;;5134198;27;19960;-56
2023/03/29 00:49:51;;;;;;;;;;;5.90;99.90;;;;;;5134442;27;20376;-57
2023/03/29 00:52:20;;;;;;;;;;;5.90;99.90;;;;;;5133934;27;19911;-57
2023/03/29 00:54:47;;;;;;;;;;;5.90;99.90;;;;;;5134630;27;19912;-58
2023/03/29 00:57:14;;;;;;;;;;;5.90;99.90;;;;;;5134307;27;19950;-56
2023/03/29 00:59:40;;;;;;;;;;;5.90;99.90;;;;;;5133721;27;19939;-57
2023/03/29 01:02:06;;;;;;;;;;;5.90;99.90;;;;;;5133978;27;19958;-57
2023/03/29 01:04:35;;;;;;;;;;;5.90;99.90;;;;;;5133977;27;19916;-57
2023/03/29 01:07:12;;;;;;;;;;;5.90;99.90;;;;;;5133630;27;19930;-57
2023/03/29 01:09:40;;;;;;;;;;;5.90;99.90;;;;;;5134199;27;20002;-56
2023/03/29 01:12:15;;;;;;;;;;;5.90;99.90;;;;;;5133840;27;19911;-57
2023/03/29 01:14:47;;;;;;;;;;;5.90;99.90;;;;;;5133589;27;19907;-57
2023/03/29 01:17:13;;;;;;;;;;;5.90;99.90;;;;;;5133868;27;20365;-57
2023/03/29 01:19:48;;;;;;;;;;;5.90;99.90;;;;;;5133560;27;19959;-57
2023/03/29 01:22:37;;;;;;;;;;;5.90;99.90;;;;;;5133914;27;19912;-57
2023/03/29 01:25:03;;;;;;;;;;;5.90;99.90;;;;;;5117579;27;19922;-56
2023/03/29 01:27:40;;;;;;;;;;;5.90;99.90;;;;;;5133474;27;19908;-58
2023/03/29 01:30:12;;;;;;;;;;;5.90;99.90;;;;;;5133774;27;19911;-55
2023/03/29 01:32:44;;;;;;;;;;;5.90;99.90;;;;;;5133626;27;19930;-57
2023/03/29 01:35:13;;;;;;;;;;;5.90;99.90;;;;;;5133423;27;19908;-57
2023/03/29 01:37:42;;;;;;;;;;;5.90;99.90;;;;;;5133752;27;19908;-56
2023/03/29 01:40:08;;;;;;;;;;;5.90;99.90;;;;;;5133490;27;19908;-57
2023/03/29 01:42:52;;;;;;;;;;;5.80;99.90;;;;;;5133255;27;19907;-57
2023/03/29 01:45:44;;;;;;;;;;;5.90;99.90;;;;;;5133271;28;19915;-57
2023/03/29 01:48:12;;;;;;;;;;;5.90;99.90;;;;;;5128071;28;19999;-57
2023/03/29 01:50:43;;;;;;;;;;;5.90;99.90;;;;;;5133850;28;19908;-57
2023/03/29 01:53:17;;;;;;;;;;;5.90;99.90;;;;;;5133337;28;20006;-57
2023/03/29 01:55:49;;;;;;;;;;;5.90;99.90;;;;;;5133128;28;19908;-56
2023/03/29 01:58:15;;;;;;;;;;;5.90;99.90;;;;;;5133446;28;20010;-56
2023/03/29 02:00:42;;;;;;;;;;;5.90;99.90;;;;;;5136316;27;20002;-57
2023/03/29 02:03:08;;;;;;;;;;;5.90;99.90;;;;;;5137073;27;20251;-57
2023/03/29 02:05:36;;;;;;;;;;;5.90;99.90;;;;;;5137811;27;19937;-56
2023/03/29 02:08:04;;;;;;;;;;;5.90;99.90;;;;;;5137406;27;20058;-56
2023/03/29 02:10:30;;;;;;;;;;;5.90;99.90;;;;;;5137053;27;19908;-57
2023/03/29 02:12:57;;;;;;;;;;;5.90;99.90;;;;;;5137493;27;19918;-56
2023/03/29 02:15:23;;;;;;;;;;;5.90;99.90;;;;;;5137399;27;19908;-57
2023/03/29 02:17:49;;;;;;;;;;;5.90;99.90;;;;;;5136999;27;19998;-58
2023/03/29 02:20:24;;;;;;;;;;;5.90;99.90;;;;;;5137401;27;19915;-57
2023/03/29 02:23:00;;;;;;;;;;;5.90;99.90;;;;;;5137193;27;19961;-56
2023/03/29 02:25:26;;;;;;;;;;;5.90;99.90;;;;;;5137188;27;19919;-57
2023/03/29 02:27:52;;;;;;;;;;;5.90;99.90;;;;;;5137190;27;19953;-57
2023/03/29 02:30:18;;;;;;;;;;;5.90;99.90;;;;;;5136620;27;19908;-57
2023/03/29 02:32:56;;;;;;;;;;;5.90;99.90;;;;;;5137118;27;19950;-57
2023/03/29 02:35:25;;;;;;;;;;;5.80;99.90;;;;;;5136873;27;19923;-58
2023/03/29 02:37:53;;;;;;;;;;;5.90;99.90;;;;;;5136462;27;19908;-56
2023/03/29 02:40:20;;;;;;;;;;;5.90;99.90;;;;;;5137070;27;20006;-57
2023/03/29 02:42:47;;;;;;;;;;;5.90;99.90;;;;;;5136775;27;19998;-57
2023/03/29 02:45:14;;;;;;;;;;;5.90;99.90;;;;;;5136281;27;19936;-57
2023/03/29 02:47:42;;;;;;;;;;;5.90;99.90;;;;;;5136931;27;20006;-56
2023/03/29 02:50:07;;;;;;;;;;;5.90;99.90;;;;;;5136565;27;20012;-57
2023/03/29 02:52:35;;;;;;;;;;;5.90;99.90;;;;;;5136244;27;20426;-57
2023/03/29 02:55:01;;;;;;;;;;;5.80;99.90;;;;;;5136815;27;19943;-58
2023/03/29 02:57:27;;;;;;;;;;;5.90;99.90;;;;;;5136527;27;19915;-57
2023/03/29 02:59:54;;;;;;;;;;;5.90;99.90;;;;;;5136070;27;19907;-57
2023/03/29 03:02:19;;;;;;;;;;;5.90;99.90;;;;;;5136622;27;19924;-56
2023/03/29 03:04:45;;;;;;;;;;;5.90;99.90;;;;;;5136199;27;19923;-57
2023/03/29 03:07:10;;;;;;;;;;;5.90;99.90;;;;;;5135817;27;20624;-57
2023/03/29 03:09:36;;;;;;;;;;;5.90;99.90;;;;;;5136319;27;19979;-56
2023/03/29 03:12:01;;;;;;;;;;;5.90;99.90;;;;;;5136188;27;20324;-56
2023/03/29 03:14:28;;;;;;;;;;;5.90;99.90;;;;;;5135836;27;19943;-57
2023/03/29 03:16:54;;;;;;;;;;;5.90;99.90;;;;;;5136016;27;20285;-57
2023/03/29 03:19:20;;;;;;;;;;;5.90;99.90;;;;;;5135580;27;19908;-56
2023/03/29 03:21:45;;;;;;;;;;;5.90;99.90;;;;;;5136287;27;19907;-57
2023/03/29 03:24:11;;;;;;;;;;;5.90;99.90;;;;;;5135932;27;19973;-57
2023/03/29 03:26:37;;;;;;;;;;;5.90;99.90;;;;;;5135600;27;20366;-57
2023/03/29 03:29:03;;;;;;;;;;;6.00;99.90;;;;;;5136066;27;19907;-57
2023/03/29 03:31:28;;;;;;;;;;;5.90;99.90;;;;;;5135873;27;20311;-57
2023/03/29 03:33:54;;;;;;;;;;;6.00;99.90;;;;;;5135382;27;19966;-57
2023/03/29 03:36:24;;;;;;;;;;;6.00;99.90;;;;;;5135909;27;19915;-56
2023/03/29 03:38:50;;;;;;;;;;;6.00;99.90;;;;;;5135757;27;19907;-58
2023/03/29 03:41:16;;;;;;;;;;;6.00;99.90;;;;;;5135183;27;19964;-57
2023/03/29 03:43:44;;;;;;;;;;;6.00;99.90;;;;;;5135794;27;19912;-57
2023/03/29 03:46:10;;;;;;;;;;;6.00;99.90;;;;;;5135462;27;19919;-57
2023/03/29 03:48:36;;;;;;;;;;;6.00;99.90;;;;;;5135056;27;20313;-57
2023/03/29 03:51:02;;;;;;;;;;;6.00;99.90;;;;;;5135594;27;19914;-56
2023/03/29 03:53:27;;;;;;;;;;;6.00;99.90;;;;;;5135505;27;19911;-57
2023/03/29 03:55:54;;;;;;;;;;;6.00;99.90;;;;;;5135032;27;20150;-57
2023/03/29 03:58:20;;;;;;;;;;;6.00;99.90;;;;;;5135464;27;19956;-57
2023/03/29 04:00:47;;;;;;;;;;;6.00;99.90;;;;;;5135046;27;19991;-57
2023/03/29 04:03:12;;;;;;;;;;;6.10;99.90;;;;;;5134787;27;20379;-57
2023/03/29 04:05:42;;;;;;;;;;;6.10;99.90;;;;;;5135137;27;19915;-57
2023/03/29 04:08:07;;;;;;;;;;;6.10;99.90;;;;;;5135340;27;19908;-57
2023/03/29 04:10:34;;;;;;;;;;;6.10;99.90;;;;;;5134892;27;19973;-57
2023/03/29 04:13:06;;;;;;;;;;;6.10;99.90;;;;;;5134934;27;20006;-57
2023/03/29 04:15:32;;;;;;;;;;;6.10;99.90;;;;;;5134668;27;19908;-57
2023/03/29 04:17:59;;;;;;;;;;;6.10;99.90;;;;;;5135000;27;19943;-58
2023/03/29 04:20:25;;;;;;;;;;;6.10;99.90;;;;;;5134988;27;19908;-56
2023/03/29 04:22:51;;;;;;;;;;;6.10;99.90;;;;;;5133778;27;19990;-56
2023/03/29 04:25:17;;;;;;;;;;;6.10;99.90;;;;;;5134929;27;19966;-57
2023/03/29 04:27:43;;;;;;;;;;;6.10;99.90;;;;;;5134814;27;20411;-57
2023/03/29 04:30:09;;;;;;;;;;;6.10;99.90;;;;;;5134263;27;20022;-57
2023/03/29 04:32:35;;;;;;;;;;;6.10;99.90;;;;;;5134931;27;19974;-58
2023/03/29 04:35:01;;;;;;;;;;;6.10;99.90;;;;;;5134531;27;20365;-57
2023/03/29 04:37:28;;;;;;;;;;;6.10;99.90;;;;;;5134227;27;20278;-56
2023/03/29 04:39:53;;;;;;;;;;;6.10;99.90;;;;;;5134659;27;19908;-57
2023/03/29 04:42:19;;;;;;;;;;;6.10;99.90;;;;;;5134593;27;19919;-57
2023/03/29 04:44:44;;;;;;;;;;;6.10;99.90;;;;;;5133909;27;19916;-56
2023/03/29 04:47:13;;;;;;;;;;;6.10;99.90;;;;;;5134537;27;19970;-56
2023/03/29 04:49:39;;;;;;;;;;;6.10;99.90;;;;;;5134324;27;19908;-56
2023/03/29 04:52:05;;;;;;;;;;;6.10;99.90;;;;;;5133935;27;19930;-57
2023/03/29 04:54:31;;;;;;;;;;;6.10;99.90;;;;;;5134498;27;20347;-57
2023/03/29 04:56:56;;;;;;;;;;;6.10;99.90;;;;;;5134066;27;19955;-58
2023/03/29 04:59:21;;;;;;;;;;;6.10;99.90;;;;;;5133674;27;19919;-57
2023/03/29 05:01:47;;;;;;;;;;;6.10;99.90;;;;;;5133916;27;19995;-57
2023/03/29 05:04:13;;;;;;;;;;;6.10;99.90;;;;;;5134231;27;19916;-57
2023/03/29 05:06:38;;;;;;;;;;;6.10;99.90;;;;;;5133698;27;20374;-58
2023/03/29 05:09:05;;;;;;;;;;;6.10;99.90;;;;;;5133902;27;19907;-56
2023/03/29 05:11:31;;;;;;;;;;;6.20;99.90;;;;;;5134214;27;19908;-57
2023/03/29 05:14:01;;;;;;;;;;;6.20;99.90;;;;;;5133515;27;20384;-57
2023/03/29 05:16:28;;;;;;;;;;;6.20;99.90;;;;;;5133942;27;19955;-57
2023/03/29 05:18:57;;;;;;;;;;;6.20;99.90;;;;;;5133506;27;19907;-57
2023/03/29 05:21:24;;;;;;;;;;;6.20;99.90;;;;;;5133989;27;19915;-57
2023/03/29 05:23:50;;;;;;;;;;;6.20;99.90;;;;;;5133714;27;19973;-57
2023/03/29 05:26:16;;;;;;;;;;;6.20;99.90;;;;;;5133338;27;20382;-57
2023/03/29 05:28:41;;;;;;;;;;;6.20;99.90;;;;;;5133768;27;19968;-57
2023/03/29 05:31:07;;;;;;;;;;;6.20;99.90;;;;;;5133612;27;19914;-57
2023/03/29 05:33:34;;;;;;;;;;;6.20;99.90;;;;;;5132815;27;19911;-57
2023/03/29 05:35:59;;;;;;;;;;;6.20;99.90;;;;;;5133426;27;20010;-56
2023/03/29 05:38:25;;;;;;;;;;;6.20;99.90;;;;;;5133662;27;20424;-57
2023/03/29 05:40:51;;;;;;;;;;;6.20;99.90;;;;;;5133307;27;20369;-57
2023/03/29 05:43:17;;;;;;;;;;;6.20;99.90;;;;;;5133693;27;19911;-57
2023/03/29 05:45:42;;;;;;;;;;;6.10;99.90;;;;;;5133489;27;20389;-57
2023/03/29 05:48:08;;;;;;;;;;;6.10;99.90;;;;;;5133044;28;19907;-57
2023/03/29 05:50:35;;;;;;;;;;;6.10;99.90;;;;;;5133785;28;20315;-57
2023/03/29 05:53:01;;;;;;;;;;;6.10;99.90;;;;;;5133338;28;19914;-57
2023/03/29 05:55:26;;;;;;;;;;;6.10;99.90;;;;;;5133142;28;19912;-56
2023/03/29 05:57:52;;;;;;;;;;;6.10;99.90;;;;;;5133493;28;20277;-57
2023/03/29 06:00:24;;;;;;;;;;;6.10;99.90;;;;;;5133092;28;19955;-57
2023/03/29 06:02:51;;;;;;;;;;;6.10;99.90;;;;;;5133046;28;19926;-56
2023/03/29 06:05:18;;;;;;;;;;;6.10;99.90;;;;;;5133242;28;19919;-57
2023/03/29 06:07:44;;;;;;;;;;;6.10;99.90;;;;;;5133556;28;19939;-56
2023/03/29 06:10:09;;;;;;;;;;;6.10;99.90;;;;;;5132762;28;19953;-57
2023/03/29 06:12:35;;;;;;;;;;;6.10;99.90;;;;;;5133332;28;19916;-57
2023/03/29 06:15:03;;;;;;;;;;;6.10;99.90;;;;;;5132847;28;19907;-56
2023/03/29 06:17:30;;;;;;;;;;;6.10;99.90;;;;;;5133378;28;20312;-58
2023/03/29 06:19:56;;;;;;;;;;;6.10;99.90;;;;;;5133128;28;19907;-58
2023/03/29 06:22:22;;;;;;;;;;;6.10;99.90;;;;;;5132731;28;19908;-57
2023/03/29 06:24:47;;;;;;;;;;;6.10;99.90;;;;;;5133269;28;20400;-57
2023/03/29 06:27:13;;;;;;;;;;;6.20;99.90;;;;;;5132983;28;19918;-58
2023/03/29 06:29:39;;;;;;;;;;;6.20;99.90;;;;;;5132775;28;19908;-57
2023/03/29 06:32:04;;;;;;;;;;;6.20;99.90;;;;;;5133320;28;19912;-58
2023/03/29 06:34:30;;;;;;;;;;;6.20;99.90;;;;;;5133115;28;20327;-56
2023/03/29 06:36:56;;;;;;;;;;;6.30;99.90;;;;;;5132626;28;19907;-57
2023/03/29 06:39:22;;;;;;;;;;;6.30;99.90;;;;;;5133171;28;19950;-57
2023/03/29 06:41:47;;;;;;;;;;;6.40;99.90;;;;;;5133058;28;19953;-57
2023/03/29 06:44:16;;;;;;;;;;;6.40;99.90;;;;;;5132524;28;20390;-56
2023/03/29 06:46:41;;;;;;;;;;;6.40;99.90;;;;;;5135863;27;19907;-56
2023/03/29 06:49:07;;;;;;;;;;;6.50;99.90;;;;;;5136628;27;19999;-56
2023/03/29 06:51:32;;;;;;;;;;;6.50;99.90;;;;;;5136314;27;20288;-56
2023/03/29 06:53:58;;;;;;;;;;;6.60;99.90;;;;;;5136695;27;19915;-57
2023/03/29 06:56:23;;;;;;;;;;;6.60;99.90;;;;;;5136669;27;19914;-56
2023/03/29 06:58:49;;;;;;;;;;;6.60;99.90;;;;;;5136207;27;19908;-57
2023/03/29 07:01:14;;;;;;;;;;;6.70;99.90;;;;;;5136404;27;19923;-56
2023/03/29 07:03:40;;;;;;;;;;;6.70;99.90;;;;;;5136556;27;19908;-57
2023/03/29 07:06:08;;;;;;;;;;;6.70;99.90;;;;;;5136078;27;19920;-56
2023/03/29 07:08:42;;;;;;;;;;;6.70;99.90;;;;;;5136216;27;19954;-57
2023/03/29 07:11:11;;;;;;;;;;;6.80;99.90;;;;;;5136460;27;19911;-57
2023/03/29 07:13:38;;;;;;;;;;;6.80;99.90;;;;;;5136247;27;19911;-57
2023/03/29 07:16:04;;;;;;;;;;;6.80;99.90;;;;;;5136129;27;19907;-56
2023/03/29 07:18:30;;;;;;;;;;;6.80;99.90;;;;;;5135877;27;19914;-57
2023/03/29 07:20:56;;;;;;;;;;;6.80;99.90;;;;;;5136278;27;20274;-56
2023/03/29 07:23:21;;;;;;;;;;;6.90;99.90;;;;;;5136176;27;20286;-56
2023/03/29 07:25:47;;;;;;;;;;;6.90;99.90;;;;;;5135708;27;19916;-57
2023/03/29 07:28:12;;;;;;;;;;;6.90;99.90;;;;;;5136152;27;19929;-57
2023/03/29 07:30:38;;;;;;;;;;;6.90;99.90;;;;;;5135905;27;19911;-57
2023/03/29 07:33:03;;;;;;;;;;;7.00;99.90;;;;;;5135475;27;19913;-56
2023/03/29 07:35:29;;;;;;;;;;;7.00;99.90;;;;;;5136053;27;19911;-57
2023/03/29 07:37:55;;;;;;;;;;;7.00;99.90;;;;;;5135610;27;19907;-57
2023/03/29 07:40:22;;;;;;;;;;;7.00;99.90;;;;;;5135499;27;19929;-57
2023/03/29 07:42:52;;;;;;;;;;;7.10;99.90;;;;;;5136018;27;19908;-57
2023/03/29 07:45:22;;;;;;;;;;;7.10;99.90;;;;;;5135604;27;19916;-57
2023/03/29 07:47:48;;;;;;;;;;;7.10;99.90;;;;;;5135260;27;19959;-56
2023/03/29 07:50:17;;;;;;;;;;;7.20;99.90;;;;;;5135422;27;19908;-56
2023/03/29 07:52:43;;;;;;;;;;;7.30;99.90;;;;;;5135711;27;19986;-57
2023/03/29 07:55:10;;;;;;;;;;;7.30;99.90;;;;;;5135043;27;19950;-57
2023/03/29 07:57:35;;;;;;;;;;;7.30;99.90;;;;;;5134362;27;19908;-56
2023/03/29 08:00:23;;;;;;;;;;;7.30;99.90;;;;;;5135170;27;20385;-56
2023/03/29 08:02:49;;;;;;;;;;;7.30;99.90;;;;;;5134098;27;19919;-56
2023/03/29 08:05:16;;;;;;;;;;;7.40;99.90;;;;;;5135088;27;20422;-56
2023/03/29 08:07:43;;;;;;;;;;;7.40;99.90;;;;;;5134894;27;19930;-56
2023/03/29 08:10:09;;;;;;;;;;;7.30;99.90;;;;;;5135264;27;20262;-56
2023/03/29 08:12:36;;;;;;;;;;;7.30;99.90;;;;;;5135113;27;19908;-56
2023/03/29 08:15:01;;;;;;;;;;;7.40;99.90;;;;;;5134558;27;20262;-56
2023/03/29 08:17:27;;;;;;;;;;;7.40;99.90;;;;;;5135126;27;19911;-56
2023/03/29 08:19:52;;;;;;;;;;;7.40;99.90;;;;;;5135189;27;20274;-57
2023/03/29 08:22:18;;;;;;;;;;;7.40;99.90;;;;;;5134513;27;19907;-56
2023/03/29 08:24:43;;;;;;;;;;;7.40;99.90;;;;;;5135003;27;19915;-57
2023/03/29 08:27:10;;;;;;;;;;;7.40;99.90;;;;;;5134743;27;20327;-57
2023/03/29 08:29:35;;;;;;;;;;;7.50;99.90;;;;;;5134434;27;19942;-56
2023/03/29 08:32:01;;;;;;;;;;;7.50;99.90;;;;;;5134693;27;19958;-57
2023/03/29 08:34:26;;;;;;;;;;;7.50;99.90;;;;;;5134755;27;19908;-57
2023/03/29 08:36:54;;;;;;;;;;;7.60;99.90;;;;;;5134235;27;20334;-57
2023/03/29 08:39:19;;;;;;;;;;;7.70;99.90;;;;;;5134462;27;19911;-56
2023/03/29 08:41:57;;;;;;;;;;;7.70;99.90;;;;;;5134692;27;19914;-56
2023/03/29 08:44:26;;;;;;;;;;;7.80;99.90;;;;;;5134216;27;19960;-57
2023/03/29 08:47:07;;;;;;;;;;;7.90;99.90;;;;;;5134318;27;19964;-56
2023/03/29 08:49:34;;;;;;;;;;;8.00;99.90;;;;;;5134601;27;19908;-57
2023/03/29 08:52:01;;;;;;;;;;;8.20;99.90;;;;;;5133938;27;19930;-57
2023/03/29 08:54:30;;;;;;;;;;;8.30;99.90;;;;;;5134248;27;20386;-56
2023/03/29 08:57:00;;;;;;;;;;;8.40;99.90;;;;;;5133701;27;19908;-57
2023/03/29 08:59:30;;;;;;;;;;;8.50;99.90;;;;;;5134450;27;20002;-57
2023/03/29 09:01:57;;;;;;;;;;;8.70;99.90;;;;;;5133823;27;19919;-56
2023/03/29 09:04:27;;;;;;;;;;;8.80;99.90;;;;;;5133739;27;19919;-56
2023/03/29 09:06:53;;;;;;;;;;;8.90;99.90;;;;;;5134256;27;19915;-56
2023/03/29 09:09:19;;;;;;;;;;;9.00;99.90;;;;;;5133678;27;20002;-57
2023/03/29 09:12:00;;;;;;;;;;;9.10;99.90;;;;;;5133617;27;20423;-56
2023/03/29 09:14:44;;;;;;;;;;;9.10;99.90;;;;;;5133990;27;19908;-57
2023/03/29 09:17:23;;;;;;;;;;;9.10;99.90;;;;;;5134042;27;19952;-57
2023/03/29 09:20:08;;;;;;;;;;;9.20;99.90;;;;;;5133515;27;20271;-57
2023/03/29 09:22:43;;;;;;;;;;;9.20;99.90;;;;;;5133879;27;19914;-56
2023/03/29 09:25:14;;;;;;;;;;;9.30;99.90;;;;;;5133314;27;20315;-57
2023/03/29 09:27:40;;;;;;;;;;;9.50;99.90;;;;;;5133980;27;19990;-57
2023/03/29 09:30:08;;;;;;;;;;;9.60;99.90;;;;;;5133598;27;19947;-57
2023/03/29 09:32:49;;;;;;;;;;;9.90;99.90;;;;;;5133268;27;19907;-57
2023/03/29 09:35:28;;;;;;;;;;;10.20;99.90;;;;;;5133755;27;20069;-56
2023/03/29 09:37:54;;;;;;;;;;;10.50;99.90;;;;;;5133862;27;19915;-56
2023/03/29 09:40:23;;;;;;;;;;;10.60;99.90;;;;;;5133353;27;19916;-57
2023/03/29 09:42:50;;;;;;;;;;;10.60;99.90;;;;;;5133736;27;19914;-57
2023/03/29 09:45:16;;;;;;;;;;;10.60;99.90;;;;;;5133621;27;20344;-57
2023/03/29 09:47:49;;;;;;;;;;;10.50;99.90;;;;;;5133244;28;19908;-57
2023/03/29 09:50:27;;;;;;;;;;;10.60;99.90;;;;;;5133456;28;19907;-57
2023/03/29 09:52:53;;;;;;;;;;;10.60;99.90;;;;;;5133741;28;19915;-57
2023/03/29 09:55:20;;;;;;;;;;;10.60;99.90;;;;;;5132934;28;19907;-57
2023/03/29 09:57:46;;;;;;;;;;;10.60;99.90;;;;;;5133454;28;19934;-57
2023/03/29 10:00:12;;;;;;;;;;;10.50;99.90;;;;;;5134896;27;20374;-57
2023/03/29 10:02:38;;;;;;;;;;;10.50;99.90;;;;;;5154364;27;19922;-57
2023/03/29 10:05:04;;;;;;;;;;;10.40;99.90;;;;;;5153880;27;19915;-57
2023/03/29 10:07:38;;;;;;;;;;;10.50;99.90;;;;;;5153708;27;19916;-57
2023/03/29 10:10:06;;;;;;;;;;;10.40;99.90;;;;;;5154120;27;19994;-57
2023/03/29 10:12:32;;;;;;;;;;;10.40;99.90;;;;;;5153994;27;20294;-57
2023/03/29 10:14:59;;;;;;;;;;;10.50;99.90;;;;;;5153591;27;19964;-57
2023/03/29 10:17:26;;;;;;;;;;;10.60;99.90;;;;;;5154056;27;19907;-57
2023/03/29 10:19:55;;;;;;;;;;;10.50;99.90;;;;;;5153839;27;19907;-57
2023/03/29 10:22:22;;;;;;;;;;;10.50;99.90;;;;;;5157458;27;20434;-57
2023/03/29 10:24:50;;;;;;;;;;;10.50;99.90;;;;;;5157857;27;19959;-57
2023/03/29 10:27:18;;;;;;;;;;;10.60;99.90;;;;;;5157918;27;19914;-57
2023/03/29 10:29:44;;;;;;;;;;;10.60;99.90;;;;;;5157549;27;19913;-56
2023/03/29 10:32:17;;;;;;;;;;;10.70;99.90;;;;;;5157685;27;20280;-57
2023/03/29 10:34:45;;;;;;;;;;;10.70;99.90;;;;;;5157929;27;19946;-57
2023/03/29 10:37:13;;;;;;;;;;;10.70;99.90;;;;;;5157318;27;19911;-58
2023/03/29 10:39:39;;;;;;;;;;;10.80;99.90;;;;;;5157719;27;19914;-57
2023/03/29 10:42:07;;;;;;;;;;;10.80;99.90;;;;;;5157817;27;19907;-57
2023/03/29 10:44:34;;;;;;;;;;;10.90;99.90;;;;;;5157087;27;19950;-58
2023/03/29 10:47:06;;;;;;;;;;;11.00;99.90;;;;;;5157473;27;19908;-58
2023/03/29 10:49:38;;;;;;;;;;;11.20;99.90;;;;;;5157130;27;19907;-58
2023/03/29 10:52:05;;;;;;;;;;;11.20;99.90;;;;;;5157618;27;19908;-58
2023/03/29 10:54:31;;;;;;;;;;;11.30;99.90;;;;;;5157399;27;19960;-58
2023/03/29 10:56:57;;;;;;;;;;;11.40;99.90;;;;;;5156956;27;20284;-57
2023/03/29 10:59:29;;;;;;;;;;;11.60;99.90;;;;;;5157451;27;19907;-58
2023/03/29 11:01:55;;;;;;;;;;;11.50;99.90;;;;;;5156838;27;19963;-58
2023/03/29 11:04:38;;;;;;;;;;;11.60;99.90;;;;;;5157000;27;19919;-58
2023/03/29 11:07:15;;;;;;;;;;;11.60;99.90;;;;;;5157077;27;19930;-58
2023/03/29 11:09:41;;;;;;;;;;;11.60;99.90;;;;;;5157451;27;20277;-58
2023/03/29 11:12:06;;;;;;;;;;;11.70;99.90;;;;;;5156596;27;20361;-57
2023/03/29 11:14:44;;;;;;;;;;;11.70;99.90;;;;;;5157150;27;19907;-58
2023/03/29 11:17:30;;;;;;;;;;;11.80;99.90;;;;;;5157087;27;19913;-57
2023/03/29 11:20:18;;;;;;;;;;;11.90;99.90;;;;;;5104042;27;20113;-57
2023/03/29 11:22:53;;;;;;;;;;;12.10;99.90;;;;;;5108002;27;19907;-57
2023/03/29 11:25:21;;;;;;;;;;;12.20;99.90;;;;;;5156384;27;19943;-58
2023/03/29 11:27:47;;;;;;;;;;;12.30;99.90;;;;;;5156696;27;20257;-58
2023/03/29 11:30:22;;;;;;;;;;;12.50;99.90;;;;;;5156913;27;19952;-57
2023/03/29 11:32:59;;;;;;;;;;;12.70;99.90;;;;;;5156313;27;19915;-58
2023/03/29 11:35:28;;;;;;;;;;;12.60;99.90;;;;;;5156607;27;19907;-58
2023/03/29 11:38:04;;;;;;;;;;;12.80;99.90;;;;;;5156695;27;19907;-57
2023/03/29 11:40:30;;;;;;;;;;;12.80;99.90;;;;;;5156270;27;19952;-57
2023/03/29 11:42:57;;;;;;;;;;;13.00;99.90;;;;;;5156326;27;19914;-58
2023/03/29 11:45:29;;;;;;;;;;;13.10;99.90;;;;;;5156480;27;19967;-58
2023/03/29 11:47:57;;;;;;;;;;;13.20;99.90;;;;;;5155968;27;20357;-57
2023/03/29 11:50:25;;;;;;;;;;;13.20;99.90;;;;;;5156261;27;19952;-58
2023/03/29 11:53:00;;;;;;;;;;;13.20;99.90;;;;;;5155896;27;19907;-58
2023/03/29 11:55:34;;;;;;;;;;;13.30;99.90;;;;;;5156411;27;19907;-58
2023/03/29 11:57:59;;;;;;;;;;;13.30;99.90;;;;;;5156081;27;20497;-58
2023/03/29 12:00:29;;;;;;;;;;;13.30;99.90;;;;;;5155455;27;20068;-57
2023/03/29 12:02:58;;;;;;;;;;;13.40;99.90;;;;;;5156037;27;19908;-57
2023/03/29 12:05:40;;;;;;;;;;;13.40;99.90;;;;;;5156106;27;20281;-58
2023/03/29 12:08:12;;;;;;;;;;;13.40;99.90;;;;;;5155574;27;19914;-58
2023/03/29 12:10:41;;;;;;;;;;;13.50;99.90;;;;;;5155793;27;19911;-58
2023/03/29 12:13:13;;;;;;;;;;;13.50;99.90;;;;;;5156279;27;19922;-57
2023/03/29 12:15:48;;;;;;;;;;;13.70;99.90;;;;;;5155506;27;19911;-57
2023/03/29 12:18:22;;;;;;;;;;;13.80;99.90;;;;;;5155630;27;19914;-57
2023/03/29 12:20:59;;;;;;;;;;;13.90;99.90;;;;;;5155347;27;19918;-58
2023/03/29 12:23:28;;;;;;;;;;;14.00;99.90;;;;;;5155919;27;19907;-57
2023/03/29 12:26:02;;;;;;;;;;;14.10;99.90;;;;;;5155615;27;19915;-58
2023/03/29 12:28:46;;;;;;;;;;;14.20;99.90;;;;;;5155151;27;19915;-57
2023/03/29 12:31:16;;;;;;;;;;;14.30;99.90;;;;;;5155328;27;19911;-57
2023/03/29 12:33:44;;;;;;;;;;;14.30;99.90;;;;;;5155510;27;20402;-57
2023/03/29 12:36:10;;;;;;;;;;;14.40;99.90;;;;;;5154990;27;19991;-58
2023/03/29 12:38:36;;;;;;;;;;;14.60;99.90;;;;;;5155362;27;19960;-57
2023/03/29 12:41:09;;;;;;;;;;;14.60;99.90;;;;;;5155324;27;20358;-57
2023/03/29 12:43:39;;;;;;;;;;;14.50;99.30;;;;;;5154394;27;19911;-58
2023/03/29 12:46:24;;;;;;;;;;;14.40;99.90;;;;;;5154920;27;19924;-57
2023/03/29 12:48:57;;;;;;;;;;;14.30;99.90;;;;;;5155125;27;19914;-58
2023/03/29 12:51:31;;;;;;;;;;;14.30;99.90;;;;;;5155219;27;19914;-57
2023/03/29 12:54:28;;;;;;;;;;;14.30;99.90;;;;;;5155165;27;19907;-57
2023/03/29 12:56:57;;;;;;;;;;;14.40;99.90;;;;;;5097331;27;19907;-57
2023/03/29 12:59:34;;;;;;;;;;;14.30;99.90;;;;;;5155036;27;19911;-58
2023/03/29 13:02:06;;;;;;;;;;;14.30;99.90;;;;;;5154806;27;19919;-58
2023/03/29 13:04:35;;;;;;;;;;;14.30;99.90;;;;;;5154444;27;20401;-58
2023/03/29 13:07:04;;;;;;;;;;;14.20;99.90;;;;;;5154790;27;20390;-58
2023/03/29 13:09:34;;;;;;;;;;;14.20;99.90;;;;;;5155167;27;20402;-57
2023/03/29 13:12:02;;;;;;;;;;;14.10;99.90;;;;;;5154368;27;19915;-58
2023/03/29 13:14:30;;;;;;;;;;;14.20;99.90;;;;;;5154774;27;19911;-58
2023/03/29 13:17:03;;;;;;;;;;;14.10;99.90;;;;;;5155000;27;19931;-57
2023/03/29 13:19:46;;;;;;;;;;;14.20;99.90;;;;;;5154790;27;19911;-57
2023/03/29 13:22:30;;;;;;;;;;;14.20;99.90;;;;;;5154521;27;19911;-58
2023/03/29 13:25:00;;;;;;;;;;;14.20;99.90;;;;;;5154137;27;19922;-58
2023/03/29 13:27:26;;;;;;;;;;;14.30;99.90;;;;;;5154559;27;19914;-58
2023/03/29 13:29:52;;;;;;;;;;;14.30;99.90;;;;;;5154605;27;19908;-58
2023/03/29 13:32:17;;;;;;;;;;;14.20;99.90;;;;;;5153928;27;20025;-58
2023/03/29 13:34:49;;;;;;;;;;;14.30;99.90;;;;;;5154537;27;19935;-58
2023/03/29 13:37:37;;;;;;;;;;;14.20;99.90;;;;;;5154507;27;19973;-58
2023/03/29 13:40:22;;;;;;;;;;;14.30;99.90;;;;;;5154006;27;19907;-58
2023/03/29 13:42:59;;;;;;;;;;;14.40;99.90;;;;;;5154086;27;19955;-58
2023/03/29 13:45:29;;;;;;;;;;;14.40;99.90;;;;;;5153806;27;20530;-58
2023/03/29 13:48:01;;;;;;;;;;;14.40;99.90;;;;;;5154358;27;19936;-58
2023/03/29 13:50:35;;;;;;;;;;;14.40;99.90;;;;;;5154244;27;20006;-58
2023/03/29 13:53:14;;;;;;;;;;;14.40;99.90;;;;;;5153701;27;19930;-58
2023/03/29 13:55:47;;;;;;;;;;;14.50;99.90;;;;;;5155356;27;20277;-58
2023/03/29 13:58:26;;;;;;;;;;;14.50;99.90;;;;;;5158644;27;20000;-57
2023/03/29 14:00:54;;;;;;;;;;;14.50;99.90;;;;;;5157875;27;19919;-58
2023/03/29 14:03:25;;;;;;;;;;;14.70;99.90;;;;;;5158323;27;19915;-58
2023/03/29 14:05:54;;;;;;;;;;;14.70;99.90;;;;;;5158566;27;19963;-58
2023/03/29 14:08:29;;;;;;;;;;;14.80;99.90;;;;;;5158031;27;19918;-58
2023/03/29 14:10:55;;;;;;;;;;;14.90;99.90;;;;;;5158222;27;19907;-57
2023/03/29 14:13:23;;;;;;;;;;;15.20;99.90;;;;;;5157818;27;19918;-58
2023/03/29 14:15:58;;;;;;;;;;;15.40;99.90;;;;;;5158301;27;20293;-58
2023/03/29 14:18:25;;;;;;;;;;;15.60;99.90;;;;;;5157966;27;19938;-58
2023/03/29 14:20:54;;;;;;;;;;;15.60;98.40;;;;;;5157772;27;19913;-58
2023/03/29 14:23:22;;;;;;;;;;;15.60;99.90;;;;;;5158154;27;19917;-58
2023/03/29 14:25:48;;;;;;;;;;;15.40;99.90;;;;;;5158144;27;19980;-58
2023/03/29 14:28:23;;;;;;;;;;;15.20;99.90;;;;;;5157642;27;19911;-58
2023/03/29 14:30:51;;;;;;;;;;;15.10;99.90;;;;;;5158149;27;20007;-58
2023/03/29 14:33:26;;;;;;;;;;;14.80;99.90;;;;;;5157936;27;19908;-58
2023/03/29 14:35:52;;;;;;;;;;;14.60;99.90;;;;;;5157601;27;19907;-58